Terminal Aerodrome Forecast
Issued by NWS

Home | Current Version | Previous Version | Text Only | Print | Product List | Glossary On
Versions: 1 2 3 4 5 6 7 8 9 10 11 12 13 14
554
FTPA31 PHFO 101732
TAFHTO
TAF
PHTO 101732Z 1018/1118 24005KT 6SM HZ SKC
     FM102000 08008KT P6SM SCT040
     FM110400 24005KT P6SM BKN040=

USA.gov is the U.S. government's official web portal to all federal, state and local government web resources and services.